Time;durP1;ratioP1;P1;durP2;ratioP2;P2;SDS_P1;SDS_P2;PMS_P1;PMS_P2;Temp;Humidity;BMP_temperature;BMP_pressure;BME280_temperature;BME280_humidity;BME280_pressure;Samples;Min_cycle;Max_cycle;Signal;HPM_P1;HPM_P2
2022/10/25 00:01:50;;;;;;;16.87;13.68;;;;;;;13.89;100.00;98730.00;2173490;81;21277;-86
2022/10/25 00:04:50;;;;;;;18.45;13.20;;;;;;;13.89;100.00;98732.62;2173047;81;20917;-85
2022/10/25 00:07:51;;;;;;;18.73;14.13;;;;;;;13.89;100.00;98732.19;2172858;81;20925;-85
2022/10/25 00:10:51;;;;;;;16.02;12.93;;;;;;;13.83;100.00;98732.17;2172865;81;21333;-85
2022/10/25 00:13:51;;;;;;;19.52;14.80;;;;;;;13.80;100.00;98736.11;2171670;81;20957;-86
2022/10/25 00:16:52;;;;;;;24.87;14.85;;;;;;;13.80;100.00;98735.24;2172130;81;20969;-85
2022/10/25 00:19:52;;;;;;;18.42;16.05;;;;;;;13.81;100.00;98734.36;2171626;81;20973;-85
2022/10/25 00:22:53;;;;;;;27.50;18.95;;;;;;;13.81;100.00;98727.37;2172027;81;20928;-84
2022/10/25 00:25:53;;;;;;;21.87;16.50;;;;;;;13.84;100.00;98729.11;2171694;81;20941;-86
2022/10/25 00:28:54;;;;;;;23.45;17.25;;;;;;;13.84;100.00;98732.61;2172849;81;20937;-85
2022/10/25 00:31:54;;;;;;;27.05;16.73;;;;;;;13.81;100.00;98739.17;2171658;81;20936;-85
2022/10/25 00:34:54;;;;;;;20.15;16.23;;;;;;;13.81;100.00;98723.43;2172782;81;20989;-85
2022/10/25 00:37:55;;;;;;;24.18;17.00;;;;;;;13.77;100.00;98724.31;2171659;81;21306;-86
2022/10/25 00:40:55;;;;;;;21.60;16.20;;;;;;;13.75;100.00;98732.62;2171013;81;20886;-86
2022/10/25 00:43:56;;;;;;;26.05;18.25;;;;;;;13.77;100.00;98729.56;2172124;81;20933;-86
2022/10/25 00:46:56;;;;;;;23.80;17.27;;;;;;;13.77;100.00;98730.88;2172688;81;20902;-85
2022/10/25 00:49:56;;;;;;;22.13;17.45;;;;;;;13.76;100.00;98731.75;2171182;81;20976;-85
2022/10/25 00:52:57;;;;;;;31.12;17.85;;;;;;;13.75;100.00;98736.56;2173536;81;20936;-86
2022/10/25 00:55:57;;;;;;;26.97;17.92;;;;;;;13.76;100.00;98733.50;2170831;81;21016;-85
2022/10/25 00:58:58;;;;;;;20.57;16.85;;;;;;;13.77;100.00;98733.94;2172059;81;20956;-85
2022/10/25 01:01:58;;;;;;;22.90;17.87;;;;;;;13.78;100.00;98731.31;2171828;81;20964;-85
2022/10/25 01:04:58;;;;;;;22.35;18.48;;;;;;;13.78;100.00;98729.13;2170748;81;20914;-85
2022/10/25 01:07:59;;;;;;;25.05;17.73;;;;;;;13.79;100.00;98729.13;2171644;81;20953;-85
2022/10/25 01:10:59;;;;;;;23.35;18.02;;;;;;;13.79;100.00;98727.81;2170723;81;20933;-85
2022/10/25 01:14:00;;;;;;;20.75;16.20;;;;;;;13.81;100.00;98723.43;2170866;81;20957;-85
2022/10/25 01:17:00;;;;;;;22.85;17.37;;;;;;;13.82;100.00;98729.11;2172142;81;20945;-86
2022/10/25 01:20:01;;;;;;;20.08;16.77;;;;;;;13.81;100.00;98722.13;2171205;81;21000;-85
2022/10/25 01:23:01;;;;;;;27.07;19.35;;;;;;;13.80;100.00;98719.06;2171676;81;20952;-84
2022/10/25 01:26:01;;;;;;;30.77;21.12;;;;;;;13.78;100.00;98719.95;2171955;81;20965;-86
2022/10/25 01:29:02;;;;;;;27.40;20.23;;;;;;;13.77;100.00;98723.45;2171796;81;20910;-85
2022/10/25 01:32:02;;;;;;;24.43;18.90;;;;;;;13.79;100.00;98737.43;2173357;81;20914;-85
2022/10/25 01:35:03;;;;;;;31.55;19.23;;;;;;;13.74;100.00;98731.33;2171935;81;20964;-86
2022/10/25 01:38:03;;;;;;;25.40;18.07;;;;;;;13.70;100.00;98729.14;2172913;81;20921;-86
2022/10/25 01:41:04;;;;;;;27.13;18.02;;;;;;;13.67;100.00;98727.84;2173047;81;20925;-86
2022/10/25 01:44:04;;;;;;;20.25;17.62;;;;;;;13.67;100.00;98723.47;2172258;81;20917;-86
2022/10/25 01:47:04;;;;;;;23.55;16.52;;;;;;;13.68;100.00;98719.09;2173936;81;21013;-85
2022/10/25 01:50:05;;;;;;;20.27;15.50;;;;;;;13.66;100.00;98723.03;2172290;81;21052;-85
2022/10/25 01:53:05;;;;;;;22.48;14.70;;;;;;;13.63;100.00;98727.42;2172471;81;20932;-86
2022/10/25 01:56:06;;;;;;;17.55;14.90;;;;;;;13.61;100.00;98720.86;2172550;81;20956;-86
2022/10/25 01:59:06;;;;;;;19.67;15.40;;;;;;;13.60;100.00;98714.31;2171360;81;20950;-86
2022/10/25 02:02:06;;;;;;;22.30;15.75;;;;;;;13.59;100.00;98711.25;2172398;81;20921;-86
2022/10/25 02:05:07;;;;;;;17.70;15.20;;;;;;;13.53;100.00;98708.20;2171447;81;21012;-86
2022/10/25 02:08:07;;;;;;;18.30;13.45;;;;;;;13.43;100.00;98715.66;2172129;81;20972;-86
2022/10/25 02:11:09;;;;;;;18.50;13.85;;;;;;;13.37;100.00;98711.73;2171462;81;20898;-86
2022/10/25 02:14:12;;;;;;;16.93;15.13;;;;;;;13.30;100.00;98721.35;2163425;82;20945;-86
2022/10/25 02:17:12;;;;;;;24.65;15.05;;;;;;;13.25;100.00;98719.61;2172197;82;20969;-84
2022/10/25 02:20:12;;;;;;;19.98;14.40;;;;;;;13.23;100.00;98726.16;2172112;81;20965;-86
2022/10/25 02:23:13;;;;;;;18.02;13.83;;;;;;;13.23;100.00;98729.22;2171576;81;20925;-86
2022/10/25 02:26:13;;;;;;;20.40;15.38;;;;;;;13.22;100.00;98730.09;2171403;81;21305;-86
2022/10/25 02:29:14;;;;;;;18.10;15.50;;;;;;;13.26;100.00;98733.16;2171721;81;20953;-81
2022/10/25 02:32:14;;;;;;;21.50;15.40;;;;;;;13.30;100.00;98730.53;2172109;81;20970;-78
2022/10/25 02:35:14;;;;;;;21.80;15.98;;;;;;;13.33;100.00;98729.66;2171012;81;20969;-85
2022/10/25 02:38:15;;;;;;;22.93;15.32;;;;;;;13.33;100.00;98733.59;2171632;81;20929;-84
2022/10/25 02:41:15;;;;;;;23.07;16.67;;;;;;;13.33;100.00;98733.14;2171383;81;20925;-84
2022/10/25 02:44:16;;;;;;;21.97;15.13;;;;;;;13.33;100.00;98729.66;2172821;81;20956;-85
2022/10/25 02:47:16;;;;;;;20.68;15.93;;;;;;;13.31;100.00;98736.64;2171449;81;20909;-83
2022/10/25 02:50:16;;;;;;;18.95;14.18;;;;;;;13.31;100.00;98737.52;2171737;81;21012;-84
2022/10/25 02:53:17;;;;;;;18.27;15.28;;;;;;;13.27;100.00;98736.21;2172637;81;20921;-85
2022/10/25 02:56:18;;;;;;;23.57;16.40;;;;;;;13.20;100.00;98742.33;2172773;81;20968;-86
2022/10/25 02:59:18;;;;;;;16.45;14.05;;;;;;;13.20;100.00;98735.34;2173160;81;20976;-83
2022/10/25 03:02:18;;;;;;;25.60;18.42;;;;;;;13.20;100.00;98742.33;2173352;81;20938;-83
2022/10/25 03:05:19;;;;;;;28.02;18.73;;;;;;;13.20;100.00;98748.45;2172425;81;20941;-86
2022/10/25 03:08:19;;;;;;;25.80;17.37;;;;;;;13.19;100.00;98746.70;2172777;81;20985;-86
2022/10/25 03:11:19;;;;;;;24.35;18.40;;;;;;;13.15;100.00;98739.67;2175115;81;20897;-85
2022/10/25 03:14:20;;;;;;;27.22;17.92;;;;;;;13.07;100.00;98738.37;2173425;81;21305;-85
2022/10/25 03:17:20;;;;;;;25.48;20.15;;;;;;;12.98;100.00;98725.23;2172724;81;20985;-86
2022/10/25 03:20:21;;;;;;;24.18;18.12;;;;;;;12.91;100.00;98717.37;2171678;81;21051;-85
2022/10/25 03:23:21;;;;;;;24.25;19.55;;;;;;;12.83;100.00;98726.53;2174694;81;20929;-86
2022/10/25 03:26:21;;;;;;;28.45;19.90;;;;;;;12.78;100.00;98740.50;2173115;81;21003;-84
2022/10/25 03:29:22;;;;;;;27.93;20.40;;;;;;;12.71;100.00;98732.62;2173868;81;20941;-85
2022/10/25 03:32:22;;;;;;;25.50;19.75;;;;;;;12.66;100.00;98732.19;2173095;81;20984;-84
2022/10/25 03:35:23;;;;;;;24.55;18.73;;;;;;;12.62;100.00;98726.50;2171511;81;20972;-84
2022/10/25 03:38:23;;;;;;;26.75;19.95;;;;;;;12.53;100.00;98730.41;2171761;82;20944;-84
2022/10/25 03:41:23;;;;;;;26.15;19.17;;;;;;;12.44;100.00;98716.87;2171086;81;20953;-84
2022/10/25 03:44:24;;;;;;;26.00;18.40;;;;;;;12.39;100.00;98715.55;2172530;81;20929;-79
2022/10/25 03:47:24;;;;;;;29.02;19.25;;;;;;;12.34;100.00;98704.63;2170434;81;20937;-84
2022/10/25 03:50:25;;;;;;;28.20;16.85;;;;;;;12.21;100.00;98693.25;2169801;81;21047;-85
2022/10/25 03:53:25;;;;;;;28.90;18.92;;;;;;;12.11;100.00;98697.98;2170491;81;20910;-85
2022/10/25 03:56:25;;;;;;;26.52;19.92;;;;;;;12.01;100.00;98707.98;2172046;81;20941;-85
2022/10/25 03:59:26;;;;;;;33.08;20.62;;;;;;;11.94;100.00;98712.31;2170991;81;20965;-85
2022/10/25 04:02:26;;;;;;;34.10;22.02;;;;;;;11.92;100.00;98718.41;2172067;81;21416;-86
2022/10/25 04:05:27;;;;;;;35.40;24.12;;;;;;;11.90;100.00;98725.37;2171341;81;20933;-84
2022/10/25 04:08:27;;;;;;;38.88;24.92;;;;;;;11.88;100.00;98727.98;2171119;81;21027;-85
2022/10/25 04:11:27;;;;;;;38.67;23.50;;;;;;;11.86;100.00;98731.02;2172595;81;21008;-83
2022/10/25 04:14:28;;;;;;;36.93;23.12;;;;;;;11.86;100.00;98734.95;2170652;81;21035;-85
2022/10/25 04:17:30;;;;;;;39.58;25.77;;;;;;;11.85;100.00;98731.89;2160064;82;21000;-84
2022/10/25 04:20:31;;;;;;;37.15;25.75;;;;;;;11.86;100.00;98740.17;2171407;81;21083;-84
2022/10/25 04:23:31;;;;;;;42.10;26.10;;;;;;;11.86;100.00;98736.25;2171537;81;21416;-83
2022/10/25 04:26:33;;;;;;;41.02;26.73;;;;;;;11.88;100.00;98738.88;2170107;81;20995;-85
2022/10/25 04:29:32;;;;;;;38.67;26.50;;;;;;;11.92;100.00;98734.97;2171183;81;21016;-85
2022/10/25 04:32:32;;;;;;;40.03;26.60;;;;;;;11.99;100.00;98736.75;2172053;81;21041;-84
2022/10/25 04:35:33;;;;;;;38.92;26.25;;;;;;;12.02;100.00;98741.13;2170001;81;21047;-84
2022/10/25 04:38:33;;;;;;;39.88;26.90;;;;;;;12.06;100.00;98743.75;2168918;81;20968;-85
2022/10/25 04:41:33;;;;;;;36.23;25.82;;;;;;;12.14;100.00;98742.52;2170332;81;21015;-82
2022/10/25 04:44:34;;;;;;;46.20;27.97;;;;;;;12.20;100.00;98738.61;2170795;81;21004;-83
2022/10/25 04:47:34;;;;;;;46.20;27.67;;;;;;;12.26;100.00;98742.99;2170344;81;21384;-84
2022/10/25 04:50:35;;;;;;;38.05;26.42;;;;;;;12.30;100.00;98738.20;2169960;81;20996;-85
2022/10/25 04:53:35;;;;;;;50.28;26.65;;;;;;;12.33;100.00;98748.25;2167604;81;20988;-83
2022/10/25 04:56:35;;;;;;;46.18;26.95;;;;;;;12.40;100.00;98741.29;2168473;81;21009;-85
2022/10/25 04:59:36;;;;;;;42.85;27.70;;;;;;;12.45;100.00;98734.33;2170564;81;20968;-84
2022/10/25 05:02:36;;;;;;;40.80;26.10;;;;;;;12.48;100.00;98741.31;2170017;81;21379;-84
2022/10/25 05:05:37;;;;;;;41.48;26.68;;;;;;;12.49;100.00;98742.63;2171164;81;21004;-83
2022/10/25 05:08:38;;;;;;;42.53;28.02;;;;;;;12.52;100.00;98743.94;2170640;81;20995;-84
2022/10/25 05:11:38;;;;;;;44.42;27.22;;;;;;;12.55;100.00;98748.31;2168112;81;20961;-84
2022/10/25 05:14:38;;;;;;;39.58;24.60;;;;;;;12.55;100.00;98753.11;2171150;81;21035;-84
2022/10/25 05:17:40;;;;;;;36.88;24.15;;;;;;;12.59;100.00;98752.69;2157783;82;21024;-83
2022/10/25 05:20:41;;;;;;;38.70;24.72;;;;;;;12.61;100.00;98751.81;2169268;81;21024;-85
2022/10/25 05:23:41;;;;;;;32.67;23.27;;;;;;;12.62;100.00;98750.07;2168897;81;20934;-85
2022/10/25 05:26:42;;;;;;;41.50;25.37;;;;;;;12.64;100.00;98752.26;2167571;81;21460;-86
2022/10/25 05:29:42;;;;;;;37.93;25.02;;;;;;;12.64;100.00;98755.75;2169165;81;21384;-84
2022/10/25 05:32:42;;;;;;;35.03;23.83;;;;;;;12.63;100.00;98752.69;2169467;81;21043;-84
2022/10/25 05:35:43;;;;;;;40.30;24.77;;;;;;;12.63;100.00;98755.31;2168413;81;21019;-84
2022/10/25 05:38:43;;;;;;;47.40;25.70;;;;;;;12.63;100.00;98754.44;2167979;81;20969;-83
2022/10/25 05:41:44;;;;;;;41.53;24.55;;;;;;;12.65;100.00;98757.94;2168660;81;21387;-85
2022/10/25 05:44:44;;;;;;;36.68;25.45;;;;;;;12.65;100.00;98760.12;2169246;81;21004;-84
2022/10/25 05:47:45;;;;;;;29.48;22.62;;;;;;;12.64;100.00;98763.61;2168489;81;20945;-86
2022/10/25 05:50:45;;;;;;;39.53;25.80;;;;;;;12.60;100.00;98763.59;2169393;81;21048;-83
2022/10/25 05:53:45;;;;;;;35.50;24.07;;;;;;;12.56;100.00;98763.15;2169168;81;20996;-80
2022/10/25 05:56:46;;;;;;;35.98;24.40;;;;;;;12.52;100.00;98771.43;2165164;81;20960;-86
2022/10/25 05:59:46;;;;;;;32.98;23.50;;;;;;;12.57;100.00;98774.06;2167238;81;20957;-84
2022/10/25 06:02:47;;;;;;;33.42;22.48;;;;;;;12.64;100.00;98779.75;2168164;81;20945;-84
2022/10/25 06:05:47;;;;;;;32.05;23.55;;;;;;;12.69;100.00;98780.64;2168989;81;20969;-85
2022/10/25 06:08:47;;;;;;;34.92;23.22;;;;;;;12.73;100.00;98785.89;2169320;81;20980;-84
2022/10/25 06:11:48;;;;;;;35.35;22.67;;;;;;;12.79;100.00;98790.70;2170186;81;20969;-84
2022/10/25 06:14:48;;;;;;;36.23;23.32;;;;;;;12.84;100.00;98792.89;2168739;81;21078;-84
2022/10/25 06:17:49;;;;;;;33.50;22.80;;;;;;;12.89;100.00;98797.27;2168627;81;20984;-84
2022/10/25 06:20:49;;;;;;;36.38;23.20;;;;;;;12.95;100.00;98804.27;2169754;81;21035;-83
2022/10/25 06:23:50;;;;;;;34.92;23.05;;;;;;;12.99;100.00;98804.27;2168743;81;21055;-81
2022/10/25 06:26:50;;;;;;;29.72;21.85;;;;;;;13.09;100.00;98794.70;2168361;81;21712;-84
2022/10/25 06:29:50;;;;;;;33.23;22.17;;;;;;;13.22;100.00;98803.48;2167633;81;20973;-85
2022/10/25 06:32:51;;;;;;;36.23;23.27;;;;;;;13.32;100.00;98806.55;2166790;81;21063;-84
2022/10/25 06:35:51;;;;;;;33.53;21.97;;;;;;;13.41;100.00;98807.86;2167193;81;21031;-85
2022/10/25 06:38:52;;;;;;;32.42;22.15;;;;;;;13.53;100.00;98809.61;2168781;81;20940;-83
2022/10/25 06:41:52;;;;;;;35.48;21.07;;;;;;;13.62;100.00;98809.16;2168006;82;21381;-84
2022/10/25 06:44:52;;;;;;;30.50;20.75;;;;;;;13.78;100.00;98812.64;2167990;81;20944;-84
2022/10/25 06:47:53;;;;;;;30.23;22.48;;;;;;;13.88;100.00;98808.28;2167849;81;20972;-85
2022/10/25 06:50:53;;;;;;;39.10;22.50;;;;;;;13.97;100.00;98815.69;2169741;81;21236;-84
2022/10/25 06:53:54;;;;;;;37.63;21.73;;;;;;;14.06;100.00;98815.23;2169157;81;21344;-85
2022/10/25 06:56:54;;;;;;;30.50;18.60;;;;;;;14.11;100.00;98820.03;2169698;81;20973;-84
2022/10/25 06:59:54;;;;;;;25.97;17.87;;;;;;;14.19;100.00;98815.20;2167438;81;20984;-83
2022/10/25 07:02:55;;;;;;;47.00;20.32;;;;;;;14.31;100.00;98819.53;2168212;81;21024;-83
2022/10/25 07:05:55;;;;;;;23.30;17.23;;;;;;;14.45;100.00;98809.88;2171025;81;21368;-82
2022/10/25 07:08:56;;;;;;;22.07;17.10;;;;;;;14.59;100.00;98808.06;2169400;81;21051;-83
2022/10/25 07:11:56;;;;;;;47.85;20.60;;;;;;;14.64;100.00;98802.34;2167633;81;21019;-83
2022/10/25 07:14:56;;;;;;;31.55;17.62;;;;;;;14.70;100.00;98796.63;2168169;81;21043;-82
2022/10/25 07:17:57;;;;;;;27.42;16.93;;;;;;;14.70;100.00;98795.31;2167868;81;20984;-84
2022/10/25 07:20:57;;;;;;;45.48;18.10;;;;;;;14.71;100.00;98804.50;2168872;81;21024;-83
2022/10/25 07:23:58;;;;;;;39.98;17.77;;;;;;;14.65;99.77;98806.72;2169230;81;21380;-84
2022/10/25 07:27:01;;;;;;;38.53;18.65;;;;;;;14.58;99.38;98807.63;2167592;81;21353;-83
2022/10/25 07:30:01;;;;;;;60.35;19.60;;;;;;;14.52;99.56;98808.98;2167355;81;20968;-84
2022/10/25 07:33:02;;;;;;;52.80;18.12;;;;;;;14.50;99.72;98807.23;2169318;81;21000;-84
2022/10/25 07:36:02;;;;;;;36.25;17.75;;;;;;;14.47;100.00;98812.50;2170512;81;20988;-84
2022/10/25 07:39:02;;;;;;;40.73;18.25;;;;;;;14.52;100.00;98817.30;2168534;81;21344;-84
2022/10/25 07:42:03;;;;;;;24.63;16.00;;;;;;;14.52;99.98;98823.86;2168026;81;20961;-83
2022/10/25 07:45:03;;;;;;;121.50;75.67;;;;;;;14.57;99.68;98821.65;2168461;81;20968;-84
2022/10/25 07:48:04;;;;;;;30.30;19.67;;;;;;;14.57;99.28;98817.70;2168427;81;21024;-85
2022/10/25 07:51:04;;;;;;;44.95;18.15;;;;;;;14.68;99.28;98825.98;2167603;81;20962;-85
2022/10/25 07:54:04;;;;;;;19.23;13.00;;;;;;;14.78;99.03;98832.97;2168588;81;21063;-85
2022/10/25 07:57:09;;;;;;;25.55;13.35;;;;;;;14.85;98.41;98833.36;2169245;81;20976;-83
2022/10/25 08:00:08;;;;;;;13.48;10.85;;;;;;;14.97;97.67;98839.87;2167246;82;21016;-82
2022/10/25 08:03:08;;;;;;;13.70;10.13;;;;;;;15.11;96.37;98844.59;2166597;81;21043;-85
2022/10/25 08:06:09;;;;;;;21.62;11.60;;;;;;;15.22;95.92;98845.40;2168544;81;21050;-83
2022/10/25 08:09:09;;;;;;;22.50;11.85;;;;;;;15.37;96.66;98845.73;2167220;81;20988;-85
2022/10/25 08:12:10;;;;;;;38.25;13.28;;;;;;;15.54;95.36;98845.60;2167499;81;20929;-83
2022/10/25 08:15:10;;;;;;;17.55;10.80;;;;;;;15.67;95.99;98842.05;2168210;81;21222;-84
2022/10/25 08:18:11;;;;;;;15.13;9.98;;;;;;;15.79;94.41;98847.20;2168580;81;21028;-85
2022/10/25 08:21:11;;;;;;;25.62;11.50;;;;;;;15.87;94.34;98840.11;2168822;81;22002;-84
2022/10/25 08:24:11;;;;;;;14.03;8.50;;;;;;;15.90;93.66;98837.45;2169309;81;20972;-84
2022/10/25 08:27:12;;;;;;;9.88;8.40;;;;;;;15.95;91.69;98837.84;2170479;81;21224;-84
2022/10/25 08:30:12;;;;;;;15.50;7.90;;;;;;;15.94;93.30;98842.23;2169472;82;21052;-80
2022/10/25 08:33:13;;;;;;;15.53;8.35;;;;;;;15.98;92.88;98839.13;2169492;81;21063;-84
2022/10/25 08:36:13;;;;;;;18.17;8.50;;;;;;;15.98;92.70;98833.87;2170568;81;21016;-86
2022/10/25 08:39:13;;;;;;;29.98;8.75;;;;;;;16.04;90.75;98843.89;2168546;81;20968;-85
2022/10/25 08:42:14;;;;;;;41.37;9.45;;;;;;;16.14;90.99;98844.22;2168678;81;21023;-84
2022/10/25 08:45:14;;;;;;;30.32;9.08;;;;;;;16.37;91.40;98841.34;2169624;81;21016;-84
2022/10/25 08:48:17;;;;;;;27.73;8.57;;;;;;;16.35;90.87;98844.44;2170043;82;20999;-84
2022/10/25 08:51:20;;;;;;;18.25;8.18;;;;;;;16.25;88.41;98842.80;2169986;81;21030;-84
2022/10/25 08:54:20;;;;;;;19.57;8.70;;;;;;;16.14;89.62;98844.67;2164010;82;20960;-85
2022/10/25 08:57:23;;;;;;;16.10;8.10;;;;;;;16.17;89.50;98851.22;2169861;81;21020;-85
2022/10/25 09:00:23;;;;;;;12.53;7.53;;;;;;;16.16;89.77;98841.13;2164255;82;22055;-84
2022/10/25 09:03:24;;;;;;;18.95;8.35;;;;;;;16.24;90.23;98841.05;2169999;81;21067;-86
2022/10/25 09:06:24;;;;;;;18.95;9.20;;;;;;;16.20;89.55;98839.34;2169525;81;20976;-85
2022/10/25 09:09:24;;;;;;;9.38;7.12;;;;;;;16.20;90.37;98838.89;2170216;81;21043;-86
2022/10/25 09:12:25;;;;;;;14.00;7.75;;;;;;;16.31;90.45;98834.83;2170778;81;21312;-85
2022/10/25 09:15:25;;;;;;;26.10;10.40;;;;;;;16.24;89.58;98842.37;2169860;81;20984;-86
2022/10/25 09:18:28;;;;;;;13.95;8.30;;;;;;;16.01;90.15;98843.05;2158933;82;21036;-82
2022/10/25 09:21:28;;;;;;;27.60;7.92;;;;;;;15.92;90.81;98850.59;2172439;81;21353;-83
2022/10/25 09:24:28;;;;;;;19.82;8.18;;;;;;;15.89;90.93;98847.98;2168486;81;20999;-85
2022/10/25 09:27:29;;;;;;;15.03;7.30;;;;;;;15.96;91.53;98852.31;2167560;81;21011;-84
2022/10/25 09:30:34;;;;;;;11.65;8.15;;;;;;;16.08;91.22;98846.05;2168478;81;20968;-85
2022/10/25 09:33:31;;;;;;;34.30;9.90;;;;;;;16.17;91.72;98849.46;2162580;82;21063;-87
2022/10/25 09:36:32;;;;;;;15.78;7.83;;;;;;;16.22;91.03;98848.09;2167685;81;21008;-84
2022/10/25 09:39:32;;;;;;;12.90;6.92;;;;;;;16.21;90.29;98850.30;2168712;81;21015;-81
2022/10/25 09:42:32;;;;;;;11.03;6.97;;;;;;;16.09;89.38;98855.70;2168266;81;22014;-84
2022/10/25 09:45:33;;;;;;;11.95;7.35;;;;;;;15.95;89.64;98854.52;2169257;81;21008;-83
2022/10/25 09:48:33;;;;;;;27.05;15.03;;;;;;;15.91;90.08;98852.36;2168740;81;20960;-83
2022/10/25 09:51:34;;;;;;;26.35;10.82;;;;;;;15.96;90.16;98856.70;2168782;81;21005;-83
2022/10/25 09:54:34;;;;;;;24.32;10.35;;;;;;;15.96;89.95;98853.62;2168647;82;21035;-82
2022/10/25 09:57:35;;;;;;;9.98;7.37;;;;;;;15.89;89.03;98859.84;2168961;81;20992;-81
2022/10/25 10:00:35;;;;;;;36.23;9.30;;;;;;;15.90;89.61;98862.90;2125875;84;20967;-82
2022/10/25 10:03:35;;;;;;;29.10;8.83;;;;;;;15.88;89.40;98856.77;2125749;84;21481;-81
2022/10/25 10:06:36;;;;;;;20.88;7.83;;;;;;;15.86;90.09;98850.20;2126591;84;21000;-84
2022/10/25 10:09:36;;;;;;;9.48;7.17;;;;;;;15.87;88.86;98849.32;2125748;84;20960;-83
2022/10/25 10:12:37;;;;;;;26.15;8.73;;;;;;;15.76;89.54;98847.23;2126310;84;20940;-83
2022/10/25 10:15:38;;;;;;;16.57;8.78;;;;;;;15.68;88.76;98851.69;2126461;84;21011;-82
2022/10/25 10:18:39;;;;;;;23.45;9.75;;;;;;;15.58;89.68;98849.98;2125898;84;20993;-82
2022/10/25 10:21:38;;;;;;;16.02;8.00;;;;;;;15.49;90.04;98857.92;2125785;84;21441;-82
2022/10/25 10:24:38;;;;;;;16.95;7.60;;;;;;;15.37;90.35;98858.01;2126001;83;21035;-82
2022/10/25 10:27:39;;;;;;;14.30;6.90;;;;;;;15.29;90.52;98862.01;2127393;83;20975;-83
2022/10/25 10:30:39;;;;;;;18.05;8.58;;;;;;;15.19;91.06;98857.70;2126118;83;20980;-83
2022/10/25 10:33:40;;;;;;;18.02;8.23;;;;;;;15.11;91.49;98855.11;2125844;83;21015;-81
2022/10/25 10:36:44;;;;;;;12.07;7.83;;;;;;;15.06;92.10;98866.09;2127234;83;20979;-82
2022/10/25 10:39:40;;;;;;;10.00;6.97;;;;;;;15.09;92.48;98852.06;2126900;83;21224;-82
2022/10/25 10:42:41;;;;;;;11.50;6.80;;;;;;;15.13;92.42;98857.29;2127500;83;20930;-83
2022/10/25 10:45:41;;;;;;;13.32;9.08;;;;;;;15.21;92.54;98856.80;2127854;83;20995;-82
2022/10/25 10:48:42;;;;;;;26.40;9.63;;;;;;;15.34;92.52;98854.09;2127511;83;20960;-83
2022/10/25 10:51:42;;;;;;;22.13;9.78;;;;;;;15.38;92.02;98851.42;2128101;83;20952;-84
2022/10/25 10:54:43;;;;;;;23.75;9.98;;;;;;;15.46;91.63;98851.36;2127293;83;21071;-83
2022/10/25 10:57:43;;;;;;;22.70;9.05;;;;;;;15.45;91.25;98857.52;2127316;83;20928;-83
2022/10/25 11:00:43;;;;;;;15.30;8.20;;;;;;;15.46;91.29;98850.05;2127792;83;20999;-82
2022/10/25 11:03:44;;;;;;;12.53;8.10;;;;;;;15.54;91.14;98853.49;2127979;83;21060;-83
2022/10/25 11:06:44;;;;;;;22.42;8.60;;;;;;;15.74;89.92;98858.22;2126400;83;20936;-82
2022/10/25 11:09:45;;;;;;;31.82;10.10;;;;;;;16.01;90.59;98854.90;2126261;83;20968;-82
2022/10/25 11:12:45;;;;;;;20.92;8.50;;;;;;;16.15;88.53;98855.63;2169800;81;20968;-81
2022/10/25 11:15:46;;;;;;;28.95;9.40;;;;;;;16.21;88.18;98854.25;2168553;81;21000;-82
2022/10/25 11:18:46;;;;;;;16.90;8.98;;;;;;;16.38;87.75;98854.06;2168845;82;20996;-82
2022/10/25 11:21:46;;;;;;;25.68;8.75;;;;;;;16.63;86.16;98850.28;2170192;81;21032;-83
2022/10/25 11:24:47;;;;;;;15.72;7.45;;;;;;;16.76;86.91;98845.77;2170376;81;20964;-84
2022/10/25 11:27:47;;;;;;;9.70;6.50;;;;;;;16.91;85.09;98848.64;2170272;81;20957;-84
2022/10/25 11:30:48;;;;;;;12.25;7.05;;;;;;;17.15;83.98;98843.89;2167919;81;20977;-84
2022/10/25 11:33:48;;;;;;;12.80;6.67;;;;;;;17.31;83.79;98847.63;2169226;81;21015;-84
2022/10/25 11:36:49;;;;;;;12.07;6.62;;;;;;;17.51;83.99;98842.94;2168144;81;21482;-84
2022/10/25 11:39:50;;;;;;;11.83;5.92;;;;;;;17.49;82.58;98846.05;2169275;81;20977;-84
2022/10/25 11:42:49;;;;;;;11.85;5.62;;;;;;;17.40;81.96;98854.11;2169228;81;21451;-84
2022/10/25 11:45:50;;;;;;;10.43;5.03;;;;;;;17.26;79.87;98856.05;2169747;81;21420;-83
2022/10/25 11:48:50;;;;;;;13.65;5.03;;;;;;;17.13;81.73;98854.91;2169427;81;21001;-83
2022/10/25 11:51:53;;;;;;;11.70;5.53;;;;;;;17.16;79.48;98846.95;2047166;87;21079;-83
2022/10/25 11:54:53;;;;;;;9.43;4.92;;;;;;;17.26;78.50;98853.41;2047308;87;21021;-82
2022/10/25 11:57:57;;;;;;;13.70;5.40;;;;;;;17.35;78.27;98850.67;2041854;87;21063;-83
2022/10/25 12:00:58;;;;;;;13.78;5.25;;;;;;;17.40;78.88;98852.80;2036019;87;21015;-83
2022/10/25 12:03:58;;;;;;;11.18;4.12;;;;;;;17.35;77.71;98861.22;2036396;87;21032;-82
2022/10/25 12:06:58;;;;;;;8.70;4.90;;;;;;;17.22;77.79;98854.35;2036792;87;21464;-82
2022/10/25 12:09:59;;;;;;;10.82;4.70;;;;;;;17.20;79.00;98851.30;2035709;87;20976;-82
2022/10/25 12:12:59;;;;;;;12.15;4.85;;;;;;;17.21;78.68;98853.48;2031378;87;20987;-83
2022/10/25 12:15:59;;;;;;;19.40;5.40;;;;;;;17.08;78.89;98848.83;2034935;87;21107;-83
2022/10/25 12:19:00;;;;;;;38.42;7.00;;;;;;;16.95;78.01;98849.90;2034646;87;21063;-82
2022/10/25 12:22:00;;;;;;;15.20;4.33;;;;;;;16.77;79.50;98844.88;2033726;87;21072;-81
2022/10/25 12:25:01;;;;;;;18.05;4.92;;;;;;;16.81;79.86;98847.45;2033806;87;21125;-80
2022/10/25 12:28:03;;;;;;;7.50;3.90;;;;;;;17.03;79.33;98841.43;2033799;87;21103;-80
2022/10/25 12:31:02;;;;;;;7.97;3.87;;;;;;;17.24;78.66;98843.33;2034669;87;21008;-81
2022/10/25 12:34:02;;;;;;;30.97;5.47;;;;;;;17.58;78.69;98835.34;2034648;87;21054;-83
2022/10/25 12:37:02;;;;;;;15.13;4.62;;;;;;;17.90;77.09;98847.16;2034860;87;21000;-83
2022/10/25 12:40:03;;;;;;;8.00;4.47;;;;;;;17.76;77.89;98860.59;2034758;87;21025;-81
2022/10/25 12:43:03;;;;;;;10.03;4.15;;;;;;;17.28;79.79;98863.50;2034761;87;21003;-81
2022/10/25 12:46:04;;;;;;;12.50;5.20;;;;;;;16.70;81.17;98873.52;2034693;87;20979;-85
2022/10/25 12:49:04;;;;;;;9.35;3.35;;;;;;;16.02;85.22;98912.80;2034385;87;21444;-85
2022/10/25 12:52:05;;;;;;;7.22;2.65;;;;;;;14.76;88.81;98921.44;2035069;87;21007;-81
2022/10/25 12:55:05;;;;;;;7.28;2.33;;;;;;;13.98;87.60;98900.11;2110395;82;21016;-81
2022/10/25 12:58:05;;;;;;;5.40;2.20;;;;;;;13.62;88.75;98897.02;2168732;81;21475;-82
2022/10/25 13:01:06;;;;;;;3.58;1.62;;;;;;;13.49;89.84;98891.77;2169451;81;22033;-81
2022/10/25 13:04:06;;;;;;;5.22;1.90;;;;;;;13.41;90.09;98893.52;2168777;81;21127;-82
2022/10/25 13:07:07;;;;;;;6.62;2.40;;;;;;;13.41;90.96;98897.00;2168815;82;20976;-82
2022/10/25 13:10:07;;;;;;;8.13;2.35;;;;;;;13.43;91.02;98898.32;2167959;81;21031;-84
2022/10/25 13:13:07;;;;;;;5.37;2.98;;;;;;;13.57;91.53;98897.90;2169576;81;21420;-82
2022/10/25 13:16:08;;;;;;;6.58;3.25;;;;;;;13.84;92.46;98891.78;2167222;81;21090;-83
2022/10/25 13:19:08;;;;;;;7.37;4.47;;;;;;;14.11;92.88;98898.34;2165873;81;21071;-83
2022/10/25 13:22:09;;;;;;;15.00;6.42;;;;;;;14.35;93.15;98899.61;2168266;81;21016;-82
2022/10/25 13:25:09;;;;;;;9.98;4.37;;;;;;;14.58;93.35;98891.69;2167164;81;21052;-83
2022/10/25 13:28:09;;;;;;;8.18;3.95;;;;;;;14.73;93.12;98891.20;2124573;83;20936;-82
2022/10/25 13:31:10;;;;;;;6.25;3.30;;;;;;;14.76;93.26;98889.91;2124897;84;20945;-83
2022/10/25 13:34:10;;;;;;;5.35;3.55;;;;;;;14.74;93.35;98895.58;2124770;84;21019;-82
2022/10/25 13:37:11;;;;;;;7.87;3.90;;;;;;;14.80;94.68;98891.20;2125432;84;21020;-84
2022/10/25 13:40:11;;;;;;;4.47;2.87;;;;;;;14.87;95.36;98895.98;2125413;84;21036;-84
2022/10/25 13:43:12;;;;;;;4.67;2.83;;;;;;;14.87;94.47;98902.12;2125048;84;20995;-83
2022/10/25 13:46:12;;;;;;;5.67;2.60;;;;;;;14.87;94.15;98905.19;2124926;84;21003;-84
2022/10/25 13:49:12;;;;;;;10.98;2.35;;;;;;;14.77;93.70;98910.05;2125827;84;21616;-83